createdAt,value
2023-01-18T00:01:23.729Z,74.90
2023-01-18T00:03:53.007Z,75.00
2023-01-18T00:06:21.289Z,74.90
2023-01-18T00:08:51.011Z,74.80
2023-01-18T00:11:19.348Z,74.80
2023-01-18T00:13:50.860Z,74.50
2023-01-18T00:16:21.157Z,74.40
2023-01-18T00:18:52.244Z,74.40
2023-01-18T00:21:20.616Z,74.50
2023-01-18T00:23:50.254Z,74.40
2023-01-18T00:26:18.510Z,74.20
2023-01-18T00:28:47.348Z,74.40
2023-01-18T00:31:17.766Z,74.40
2023-01-18T00:33:46.977Z,74.70
2023-01-18T00:36:16.517Z,74.40
2023-01-18T00:38:44.888Z,74.40
2023-01-18T00:41:14.461Z,74.20
2023-01-18T00:43:41.729Z,73.90
2023-01-18T00:46:11.755Z,73.50
2023-01-18T00:48:41.259Z,75.30
2023-01-18T00:51:11.415Z,74.80
2023-01-18T00:53:40.044Z,75.00
2023-01-18T00:56:08.893Z,75.10
2023-01-18T00:58:38.980Z,75.90
2023-01-18T01:01:08.806Z,76.60
2023-01-18T01:03:51.552Z,76.10
2023-01-18T01:06:47.187Z,75.60
2023-01-18T01:09:18.180Z,75.30
2023-01-18T01:12:00.682Z,76.00
2023-01-18T01:14:47.773Z,76.10
2023-01-18T01:17:33.167Z,75.50
2023-01-18T01:20:18.524Z,75.40
2023-01-18T01:23:04.114Z,75.90
2023-01-18T01:25:49.450Z,76.70
2023-01-18T01:28:17.935Z,78.50
2023-01-18T01:30:47.572Z,78.60
2023-01-18T01:33:16.177Z,80.00
2023-01-18T01:35:44.507Z,81.70
2023-01-18T01:38:12.764Z,82.70
2023-01-18T01:40:40.937Z,83.70
2023-01-18T01:43:13.758Z,86.90
2023-01-18T01:45:42.131Z,89.30
2023-01-18T01:48:12.477Z,89.40
2023-01-18T01:50:41.650Z,90.00
2023-01-18T01:53:11.317Z,86.30
2023-01-18T01:55:41.781Z,85.90
2023-01-18T01:58:14.282Z,84.50
2023-01-18T02:00:42.744Z,82.10
2023-01-18T02:03:15.903Z,80.60
2023-01-18T02:05:47.026Z,81.10
2023-01-18T02:08:22.461Z,82.40
2023-01-18T02:10:50.983Z,80.80
2023-01-18T02:13:20.615Z,80.00
2023-01-18T02:15:56.770Z,80.90
2023-01-18T02:18:30.557Z,81.00
2023-01-18T02:21:17.437Z,79.00
2023-01-18T02:24:18.584Z,78.60
2023-01-18T02:27:05.787Z,78.60
2023-01-18T02:29:54.579Z,80.70
2023-01-18T02:32:31.401Z,85.60
2023-01-18T02:35:08.927Z,84.20
2023-01-18T02:37:45.764Z,83.10
2023-01-18T02:40:22.429Z,81.40
2023-01-18T02:43:08.212Z,79.50
2023-01-18T02:45:59.738Z,86.60
2023-01-18T02:48:33.671Z,88.50
2023-01-18T02:51:02.012Z,85.80
2023-01-18T02:53:31.382Z,83.70
2023-01-18T02:56:03.465Z,82.10
2023-01-18T02:58:35.322Z,80.30
2023-01-18T03:01:08.267Z,79.30
2023-01-18T03:03:36.868Z,80.40
2023-01-18T03:06:09.060Z,81.60
2023-01-18T03:08:42.512Z,82.90
2023-01-18T03:11:14.246Z,84.80
2023-01-18T03:13:56.722Z,86.30
2023-01-18T03:16:32.494Z,88.60
2023-01-18T03:19:05.876Z,91.10
2023-01-18T03:21:42.899Z,91.70
2023-01-18T03:24:11.597Z,92.50
2023-01-18T03:26:44.468Z,93.90
2023-01-18T03:29:32.330Z,94.30
2023-01-18T03:32:22.561Z,93.70
2023-01-18T03:34:56.050Z,93.80
2023-01-18T03:37:30.593Z,94.20
2023-01-18T03:40:03.577Z,94.80
2023-01-18T03:42:36.813Z,95.10
2023-01-18T03:45:10.750Z,95.10
2023-01-18T03:47:40.839Z,95.60
2023-01-18T03:50:10.760Z,96.20
2023-01-18T03:52:43.424Z,96.30
2023-01-18T03:55:17.012Z,96.70
2023-01-18T03:57:50.244Z,96.20
2023-01-18T04:00:19.345Z,96.70
2023-01-18T04:02:50.856Z,97.10
2023-01-18T04:05:19.636Z,97.80
2023-01-18T04:07:48.118Z,97.90
2023-01-18T04:10:16.384Z,98.40
2023-01-18T04:12:44.635Z,97.90
2023-01-18T04:15:13.229Z,97.40
2023-01-18T04:17:41.492Z,97.00
2023-01-18T04:20:12.318Z,97.70
2023-01-18T04:22:40.524Z,97.90
2023-01-18T04:25:09.481Z,97.50
2023-01-18T04:27:37.621Z,98.00
2023-01-18T04:30:06.740Z,97.40
2023-01-18T04:32:34.876Z,97.60
2023-01-18T04:35:03.217Z,97.00
2023-01-18T04:37:34.184Z,97.00
2023-01-18T04:40:02.513Z,96.10
2023-01-18T04:42:30.686Z,96.20
2023-01-18T04:44:59.872Z,95.60
2023-01-18T04:47:29.597Z,95.30
2023-01-18T04:49:58.574Z,94.90
2023-01-18T04:52:26.968Z,94.00
2023-01-18T04:54:56.699Z,92.60
2023-01-18T04:57:25.208Z,94.20
2023-01-18T04:59:53.331Z,94.50
2023-01-18T05:02:21.648Z,96.00
2023-01-18T05:04:49.859Z,96.60
2023-01-18T05:07:18.047Z,96.90
2023-01-18T05:09:48.384Z,97.50
2023-01-18T05:12:17.985Z,98.20
2023-01-18T05:14:46.184Z,98.50
2023-01-18T05:17:14.425Z,98.60
2023-01-18T05:19:42.765Z,98.90
2023-01-18T05:22:10.988Z,98.70
2023-01-18T05:24:39.257Z,98.90
2023-01-18T05:27:07.474Z,99.00
2023-01-18T05:29:37.191Z,99.10
2023-01-18T05:32:06.372Z,99.30
2023-01-18T05:34:34.717Z,99.30
2023-01-18T05:37:04.524Z,99.50
2023-01-18T05:39:32.724Z,99.50
2023-01-18T05:42:00.979Z,99.30
2023-01-18T05:44:29.123Z,99.40
2023-01-18T05:46:59.276Z,99.60
2023-01-18T05:49:27.488Z,99.40
2023-01-18T05:51:55.681Z,99.60
2023-01-18T05:54:23.924Z,98.20
2023-01-18T05:56:52.139Z,98.30
2023-01-18T05:59:20.308Z,98.10
2023-01-18T06:01:48.517Z,98.60
2023-01-18T06:04:18.169Z,98.30
2023-01-18T06:06:46.402Z,98.20
2023-01-18T06:09:14.957Z,98.00
2023-01-18T06:11:43.540Z,98.30
2023-01-18T06:14:11.706Z,98.40
2023-01-18T06:16:39.955Z,98.50
2023-01-18T06:19:08.250Z,99.00
2023-01-18T06:21:37.745Z,98.90
2023-01-18T06:24:06.432Z,98.90
2023-01-18T06:26:35.011Z,99.10
2023-01-18T06:29:03.301Z,98.90
2023-01-18T06:31:31.515Z,98.40
2023-01-18T06:33:59.705Z,98.40
2023-01-18T06:36:29.241Z,97.90
2023-01-18T06:38:58.764Z,98.20
2023-01-18T06:41:29.693Z,98.00
2023-01-18T06:43:58.055Z,97.90
2023-01-18T06:46:28.540Z,97.80
2023-01-18T06:48:56.845Z,97.40
2023-01-18T06:51:25.172Z,97.80
2023-01-18T06:53:53.262Z,97.20
2023-01-18T06:56:22.920Z,97.00
2023-01-18T06:58:51.986Z,96.80
2023-01-18T07:01:20.304Z,96.30
2023-01-18T07:03:48.501Z,96.00
2023-01-18T07:06:16.719Z,95.70
2023-01-18T07:08:44.856Z,96.40
2023-01-18T07:11:14.481Z,95.40
2023-01-18T07:13:44.153Z,96.60
2023-01-18T07:16:17.491Z,95.20
2023-01-18T07:18:46.816Z,94.60
2023-01-18T07:21:16.141Z,95.00
2023-01-18T07:23:44.833Z,95.00
2023-01-18T07:26:17.011Z,96.00
2023-01-18T07:28:47.393Z,97.60
2023-01-18T07:31:16.490Z,95.90
2023-01-18T07:33:44.758Z,95.50
2023-01-18T07:36:14.060Z,96.40
2023-01-18T07:38:42.665Z,95.60
2023-01-18T07:41:14.304Z,95.50
2023-01-18T07:43:44.728Z,95.20
2023-01-18T07:46:18.527Z,94.20
2023-01-18T07:48:47.814Z,94.60
2023-01-18T07:51:16.996Z,94.40
2023-01-18T07:53:45.756Z,94.70
2023-01-18T07:56:15.580Z,92.90
2023-01-18T07:58:44.019Z,92.40
2023-01-18T08:01:16.079Z,90.50
2023-01-18T08:03:45.606Z,88.70
2023-01-18T08:06:13.886Z,87.10
2023-01-18T08:08:42.059Z,85.70
2023-01-18T08:11:10.832Z,85.10
2023-01-18T08:13:39.674Z,87.80
2023-01-18T08:16:11.171Z,88.00
2023-01-18T08:18:41.626Z,89.80
2023-01-18T08:21:11.762Z,90.10
2023-01-18T08:23:40.417Z,88.40
2023-01-18T08:26:09.820Z,88.20
2023-01-18T08:28:38.055Z,90.00
2023-01-18T08:31:09.646Z,90.20
2023-01-18T08:33:41.556Z,89.10
2023-01-18T08:36:14.360Z,86.50
2023-01-18T08:38:42.612Z,86.70
2023-01-18T08:41:10.984Z,85.10
2023-01-18T08:43:39.162Z,84.70
2023-01-18T08:46:07.610Z,83.30
2023-01-18T08:48:36.272Z,82.30
2023-01-18T08:51:05.991Z,82.40
2023-01-18T08:53:34.243Z,80.90
2023-01-18T08:56:05.746Z,81.20
2023-01-18T08:58:34.506Z,81.40
2023-01-18T09:01:06.241Z,81.50
2023-01-18T09:03:35.255Z,81.50
2023-01-18T09:06:05.799Z,81.00
2023-01-18T09:08:33.947Z,80.80
2023-01-18T09:11:03.494Z,81.20
2023-01-18T09:13:31.964Z,81.60
2023-01-18T09:16:00.884Z,81.80
2023-01-18T09:18:30.147Z,82.20
2023-01-18T09:20:58.398Z,82.50
2023-01-18T09:23:28.062Z,81.30
2023-01-18T09:26:03.261Z,80.70
2023-01-18T09:28:31.540Z,80.60
2023-01-18T09:31:02.197Z,80.00
2023-01-18T09:33:37.673Z,79.40
2023-01-18T09:36:09.864Z,79.40
2023-01-18T09:38:41.297Z,79.50
2023-01-18T09:41:21.663Z,79.50
2023-01-18T09:43:52.143Z,80.10
2023-01-18T09:46:22.140Z,80.30
2023-01-18T09:48:55.625Z,80.70
2023-01-18T09:51:28.958Z,79.60
2023-01-18T09:54:09.286Z,79.10
2023-01-18T09:56:44.368Z,79.80
2023-01-18T09:59:22.978Z,80.10
2023-01-18T10:01:54.983Z,80.80
2023-01-18T10:04:30.067Z,80.50
2023-01-18T10:07:01.683Z,79.20
2023-01-18T10:09:35.217Z,81.40
2023-01-18T10:12:08.276Z,80.90
2023-01-18T10:14:47.908Z,80.70
2023-01-18T10:17:22.963Z,81.10
2023-01-18T10:19:51.937Z,80.50
2023-01-18T10:22:25.446Z,79.40
2023-01-18T10:25:02.602Z,77.40
2023-01-18T10:27:55.378Z,77.40
2023-01-18T10:30:46.508Z,79.60
2023-01-18T10:33:21.739Z,80.00
2023-01-18T10:35:51.976Z,79.60
2023-01-18T10:38:23.063Z,79.40
2023-01-18T10:40:57.217Z,78.80
2023-01-18T10:43:27.597Z,78.90
2023-01-18T10:45:56.555Z,77.00
2023-01-18T10:48:31.078Z,75.70
2023-01-18T10:51:01.422Z,76.10
2023-01-18T10:53:32.526Z,77.50
2023-01-18T10:56:08.380Z,78.10
2023-01-18T10:58:45.330Z,78.00
2023-01-18T11:01:17.676Z,76.70
2023-01-18T11:03:48.271Z,76.90
2023-01-18T11:06:17.303Z,76.30
2023-01-18T11:08:45.617Z,76.90
2023-01-18T11:11:49.032Z,76.80
2023-01-18T11:14:29.651Z,77.20
2023-01-18T11:17:02.782Z,77.60
2023-01-18T11:19:31.209Z,78.00
2023-01-18T11:21:59.393Z,77.90
2023-01-18T11:24:31.172Z,78.20
2023-01-18T11:27:02.926Z,77.60
2023-01-18T11:29:33.827Z,78.20
2023-01-18T11:32:05.236Z,77.10
2023-01-18T11:34:36.993Z,76.80
2023-01-18T11:37:06.260Z,76.80
2023-01-18T11:39:35.917Z,77.50
2023-01-18T11:42:22.648Z,78.20
2023-01-18T11:45:02.276Z,78.00
2023-01-18T11:47:37.161Z,77.50
2023-01-18T11:50:21.990Z,77.70
2023-01-18T11:52:54.899Z,78.30
2023-01-18T11:55:32.185Z,78.60
2023-01-18T11:58:02.286Z,78.40
2023-01-18T12:00:45.929Z,77.70
2023-01-18T12:03:40.197Z,78.20
2023-01-18T12:06:18.997Z,77.70
2023-01-18T12:09:04.740Z,76.90
2023-01-18T12:11:50.158Z,78.10
2023-01-18T12:14:41.555Z,78.50
2023-01-18T12:17:30.487Z,77.90
2023-01-18T12:20:08.394Z,78.10
2023-01-18T12:23:22.447Z,77.60
2023-01-18T12:26:11.701Z,77.80
2023-01-18T12:28:52.299Z,78.50
2023-01-18T12:31:35.149Z,78.90
2023-01-18T12:34:13.555Z,79.10
2023-01-18T12:37:10.715Z,78.30
2023-01-18T12:39:54.684Z,78.30
2023-01-18T12:42:35.767Z,78.20
2023-01-18T12:45:16.917Z,78.20
2023-01-18T12:47:55.005Z,79.40
2023-01-18T12:50:27.563Z,78.90
2023-01-18T12:53:00.994Z,78.60
2023-01-18T12:55:32.984Z,79.20
2023-01-18T12:58:03.105Z,79.50
2023-01-18T13:00:36.457Z,80.30
2023-01-18T13:03:11.557Z,79.10
2023-01-18T13:05:51.120Z,78.70
2023-01-18T13:08:29.157Z,78.20
2023-01-18T13:11:06.720Z,77.60
2023-01-18T13:13:36.220Z,78.60
2023-01-18T13:16:15.237Z,77.90
2023-01-18T13:18:53.122Z,77.60
2023-01-18T13:21:33.676Z,77.90
2023-01-18T13:24:11.347Z,76.70
2023-01-18T13:26:40.239Z,77.50
2023-01-18T13:29:16.720Z,76.90
2023-01-18T13:31:46.137Z,77.00
2023-01-18T13:34:32.252Z,77.00
2023-01-18T13:37:14.447Z,77.40
2023-01-18T13:39:48.597Z,77.50
2023-01-18T13:42:35.014Z,77.60
2023-01-18T13:45:21.890Z,77.40
2023-01-18T13:48:00.507Z,77.50
2023-01-18T13:50:47.364Z,77.70
2023-01-18T13:53:26.918Z,78.10
2023-01-18T13:56:23.094Z,78.60
2023-01-18T13:58:57.614Z,78.50
2023-01-18T14:01:32.630Z,77.80
2023-01-18T14:04:20.181Z,78.10
2023-01-18T14:06:50.868Z,78.20
2023-01-18T14:09:29.456Z,78.00
2023-01-18T14:11:58.835Z,77.90
2023-01-18T14:14:30.370Z,77.40
2023-01-18T14:17:07.194Z,76.90
2023-01-18T14:20:02.733Z,77.20
2023-01-18T14:22:43.896Z,77.70
2023-01-18T14:25:39.010Z,77.80
2023-01-18T14:28:13.456Z,78.70
2023-01-18T14:30:50.613Z,78.10
2023-01-18T14:33:27.319Z,77.60
2023-01-18T14:35:58.870Z,77.20
2023-01-18T14:38:31.604Z,76.20
2023-01-18T14:41:26.269Z,76.80
2023-01-18T14:43:55.282Z,76.20
2023-01-18T14:46:27.788Z,75.40
2023-01-18T14:48:58.519Z,75.10
2023-01-18T14:51:29.921Z,75.50
2023-01-18T14:54:03.159Z,75.60
2023-01-18T14:56:34.884Z,75.40
2023-01-18T14:59:17.765Z,73.70
2023-01-18T15:01:53.972Z,73.80
2023-01-18T15:04:24.442Z,68.50
2023-01-18T15:06:55.399Z,61.40
2023-01-18T15:09:28.252Z,54.10
2023-01-18T15:12:00.664Z,54.70
2023-01-18T15:14:33.651Z,55.80
2023-01-18T15:17:03.280Z,57.30
2023-01-18T15:19:36.498Z,60.80
2023-01-18T15:22:07.616Z,60.40
2023-01-18T15:24:41.392Z,66.50
2023-01-18T15:27:14.126Z,59.20
2023-01-18T15:29:47.677Z,59.80
2023-01-18T15:32:21.704Z,59.40
2023-01-18T15:34:52.141Z,62.70
2023-01-18T15:37:25.415Z,62.30
2023-01-18T15:40:02.579Z,62.70
2023-01-18T15:42:34.329Z,63.20
2023-01-18T15:45:02.686Z,65.70
2023-01-18T15:47:36.731Z,66.30
2023-01-18T15:50:16.657Z,65.70
2023-01-18T15:52:48.672Z,61.90
2023-01-18T15:55:24.099Z,64.60
2023-01-18T15:58:00.074Z,65.80
2023-01-18T16:00:31.316Z,65.10
2023-01-18T16:03:00.052Z,62.20
2023-01-18T16:05:29.369Z,64.20
2023-01-18T16:08:19.393Z,64.50
2023-01-18T16:10:52.325Z,64.40
2023-01-18T16:13:40.359Z,63.60
2023-01-18T16:16:22.442Z,64.40
2023-01-18T16:19:00.006Z,65.40
2023-01-18T16:21:40.439Z,66.00
2023-01-18T16:24:17.828Z,66.60
2023-01-18T16:26:47.948Z,67.50
2023-01-18T16:29:16.324Z,67.70
2023-01-18T16:31:45.618Z,68.00
2023-01-18T16:34:25.523Z,68.80
2023-01-18T16:36:54.729Z,69.20
2023-01-18T16:39:24.411Z,69.90
2023-01-18T16:41:57.982Z,70.50
2023-01-18T16:44:27.633Z,71.00
2023-01-18T16:46:55.978Z,71.50
2023-01-18T16:49:26.865Z,71.60
2023-01-18T16:51:55.945Z,71.40
2023-01-18T16:54:24.246Z,71.30
2023-01-18T16:56:52.524Z,71.30
2023-01-18T16:59:23.173Z,71.60
2023-01-18T17:01:52.080Z,71.50
2023-01-18T17:04:20.298Z,71.40
2023-01-18T17:06:51.470Z,71.20
2023-01-18T17:09:25.001Z,71.40
2023-01-18T17:11:53.772Z,71.40
2023-01-18T17:14:23.646Z,71.70
2023-01-18T17:16:52.058Z,71.80
2023-01-18T17:19:22.404Z,71.40
2023-01-18T17:21:51.747Z,71.60
2023-01-18T17:24:22.130Z,71.10
2023-01-18T17:26:50.557Z,70.70
2023-01-18T17:29:21.280Z,70.50
2023-01-18T17:31:53.007Z,70.50
2023-01-18T17:34:27.806Z,71.20
2023-01-18T17:36:57.760Z,71.60
2023-01-18T17:39:37.438Z,71.70
2023-01-18T17:42:19.158Z,72.20
2023-01-18T17:45:02.574Z,72.70
2023-01-18T17:47:33.289Z,72.90
2023-01-18T17:50:03.637Z,73.00
2023-01-18T17:52:31.818Z,71.80
2023-01-18T17:55:00.143Z,72.50
2023-01-18T17:57:28.809Z,72.70
2023-01-18T17:59:57.002Z,73.00
2023-01-18T18:02:25.900Z,73.50
2023-01-18T18:04:55.531Z,73.90
2023-01-18T18:07:23.692Z,73.90
2023-01-18T18:09:56.673Z,74.00
2023-01-18T18:12:24.885Z,73.90
2023-01-18T18:14:55.833Z,73.70
2023-01-18T18:17:24.710Z,73.30
2023-01-18T18:19:52.904Z,73.10
2023-01-18T18:22:22.702Z,72.50
2023-01-18T18:24:51.208Z,72.50
2023-01-18T18:27:20.021Z,72.40
2023-01-18T18:29:48.525Z,72.20
2023-01-18T18:32:17.204Z,72.20
2023-01-18T18:34:45.446Z,72.30
2023-01-18T18:37:15.177Z,73.10
2023-01-18T18:39:44.710Z,72.50
2023-01-18T18:42:13.047Z,72.30
2023-01-18T18:44:41.344Z,72.40
2023-01-18T18:47:10.009Z,72.60
2023-01-18T18:49:38.230Z,72.90
2023-01-18T18:52:06.403Z,73.30
2023-01-18T18:54:34.608Z,73.60
2023-01-18T18:57:04.460Z,73.70
2023-01-18T18:59:32.701Z,73.70
2023-01-18T19:02:00.928Z,73.70
2023-01-18T19:04:29.109Z,73.60
2023-01-18T19:06:57.282Z,73.70
2023-01-18T19:09:25.500Z,74.00
2023-01-18T19:11:55.313Z,73.80
2023-01-18T19:14:26.445Z,73.40
2023-01-18T19:16:54.831Z,73.60
2023-01-18T19:19:24.297Z,73.50
2023-01-18T19:21:53.506Z,73.20
2023-01-18T19:24:21.745Z,73.40
2023-01-18T19:26:49.995Z,73.30
2023-01-18T19:29:18.387Z,73.10
2023-01-18T19:31:47.935Z,73.20
2023-01-18T19:34:16.551Z,73.20
2023-01-18T19:36:44.781Z,73.20
2023-01-18T19:39:21.901Z,73.40
2023-01-18T19:41:51.159Z,73.20
2023-01-18T19:44:19.534Z,73.10
2023-01-18T19:46:49.077Z,73.50
2023-01-18T19:49:20.017Z,73.50
2023-01-18T19:51:48.349Z,73.60
2023-01-18T19:54:16.530Z,73.30
2023-01-18T19:56:44.796Z,73.30
2023-01-18T19:59:14.521Z,73.10
2023-01-18T20:01:43.098Z,72.90
2023-01-18T20:04:13.333Z,72.50
2023-01-18T20:06:43.494Z,73.10
2023-01-18T20:09:19.631Z,73.10
2023-01-18T20:11:49.621Z,72.80
2023-01-18T20:14:18.391Z,72.70
2023-01-18T20:16:46.878Z,72.80
2023-01-18T20:19:17.615Z,72.70
2023-01-18T20:21:46.038Z,72.40
2023-01-18T20:24:14.163Z,71.70
2023-01-18T20:26:42.382Z,72.20
2023-01-18T20:29:11.107Z,72.10
2023-01-18T20:31:41.093Z,72.10
2023-01-18T20:34:11.252Z,72.30
2023-01-18T20:36:40.881Z,72.20
2023-01-18T20:39:10.334Z,72.00
2023-01-18T20:41:38.590Z,71.70
2023-01-18T20:44:07.167Z,71.70
2023-01-18T20:46:35.448Z,71.90
2023-01-18T20:49:03.941Z,71.80
2023-01-18T20:51:32.338Z,71.90
2023-01-18T20:54:02.230Z,71.90
2023-01-18T20:56:32.018Z,71.80
2023-01-18T20:59:00.198Z,72.30
2023-01-18T21:01:32.636Z,70.80
2023-01-18T21:04:02.786Z,70.80
2023-01-18T21:06:34.341Z,70.80
2023-01-18T21:09:04.492Z,71.10
2023-01-18T21:11:32.999Z,71.10
2023-01-18T21:14:01.209Z,71.40
2023-01-18T21:16:29.414Z,71.20
2023-01-18T21:18:59.236Z,71.40
2023-01-18T21:21:29.390Z,71.40
2023-01-18T21:23:57.677Z,71.10
2023-01-18T21:26:27.558Z,70.90
2023-01-18T21:28:56.222Z,70.90
2023-01-18T21:31:24.459Z,70.70
2023-01-18T21:33:52.885Z,70.90
2023-01-18T21:36:22.951Z,71.20
2023-01-18T21:38:51.458Z,71.40
2023-01-18T21:41:37.497Z,71.70
2023-01-18T21:44:24.983Z,71.70
2023-01-18T21:46:53.793Z,72.20
2023-01-18T21:50:04.055Z,72.00
2023-01-18T21:52:47.824Z,72.10
2023-01-18T21:55:16.770Z,71.80
2023-01-18T21:57:45.086Z,71.30
2023-01-18T22:00:15.835Z,71.10
2023-01-18T22:02:44.029Z,71.00
2023-01-18T22:05:12.174Z,70.80
2023-01-18T22:07:40.369Z,70.80
2023-01-18T22:10:09.372Z,70.80
2023-01-18T22:12:39.058Z,70.80
2023-01-18T22:15:08.120Z,70.80
2023-01-18T22:17:37.624Z,71.00
2023-01-18T22:20:06.722Z,71.00
2023-01-18T22:22:34.937Z,71.00
2023-01-18T22:25:03.151Z,71.30
2023-01-18T22:27:32.190Z,71.40
2023-01-18T22:30:00.440Z,71.20
2023-01-18T22:32:28.645Z,71.20
2023-01-18T22:34:58.189Z,71.10
2023-01-18T22:37:27.734Z,71.20
2023-01-18T22:39:55.958Z,71.10
2023-01-18T22:42:24.342Z,71.00
2023-01-18T22:44:52.533Z,71.10
2023-01-18T22:47:20.753Z,71.30
2023-01-18T22:49:48.908Z,70.70
2023-01-18T22:52:18.591Z,70.80
2023-01-18T22:54:46.871Z,70.80
2023-01-18T22:57:15.010Z,70.70
2023-01-18T22:59:43.123Z,70.80
2023-01-18T23:02:11.291Z,70.20
2023-01-18T23:04:43.294Z,70.60
2023-01-18T23:07:14.173Z,70.20
2023-01-18T23:09:44.002Z,70.00
2023-01-18T23:12:12.229Z,70.00
2023-01-18T23:14:57.639Z,70.30
2023-01-18T23:17:40.816Z,70.40
2023-01-18T23:20:11.639Z,70.10
2023-01-18T23:22:41.975Z,70.00
2023-01-18T23:25:11.784Z,70.00
2023-01-18T23:27:39.971Z,70.00
2023-01-18T23:30:09.568Z,70.10
2023-01-18T23:32:37.835Z,70.10
2023-01-18T23:35:07.180Z,70.30
2023-01-18T23:37:35.391Z,70.10
2023-01-18T23:40:21.466Z,69.70
2023-01-18T23:43:11.803Z,69.80
2023-01-18T23:45:57.491Z,69.80
2023-01-18T23:48:42.826Z,70.10
2023-01-18T23:51:28.398Z,69.70
2023-01-18T23:54:15.967Z,69.70
2023-01-18T23:56:44.827Z,69.60
2023-01-18T23:59:15.161Z,70.10
